Time;durP1;ratioP1;P1;durP2;ratioP2;P2;SDS_P1;SDS_P2;PMS_P1;PMS_P2;Temp;Humidity;BMP_temperature;BMP_pressure;BME280_temperature;BME280_humidity;BME280_pressure;Samples;Min_cycle;Max_cycle;Signal;HPM_P1;HPM_P2
2023/12/10 00:01:19;;;;;;;1354.75;999.90;;;27.10;99.90;;;;;;5055030;28;20029;-67
2023/12/10 00:03:46;;;;;;;1369.30;999.90;;;27.10;99.90;;;;;;5055212;28;20017;-64
2023/12/10 00:06:12;;;;;;;1345.18;999.90;;;27.20;99.90;;;;;;5055338;28;20098;-64
2023/12/10 00:08:39;;;;;;;1366.70;999.90;;;27.10;99.90;;;;;;5037965;28;20025;-63
2023/12/10 00:11:05;;;;;;;1343.97;999.90;;;27.10;99.90;;;;;;5039521;28;20025;-62
2023/12/10 00:13:32;;;;;;;1352.55;999.90;;;27.20;99.90;;;;;;5052026;28;20024;-62
2023/12/10 00:15:58;;;;;;;1345.63;999.90;;;27.20;99.90;;;;;;5045826;28;20026;-64
2023/12/10 00:18:25;;;;;;;1371.53;999.90;;;27.20;99.90;;;;;;5042972;28;20060;-61
2023/12/10 00:20:51;;;;;;;1351.05;999.90;;;27.30;99.90;;;;;;5043566;28;20591;-66
2023/12/10 00:23:18;;;;;;;1364.35;999.90;;;27.20;99.90;;;;;;5043676;28;20022;-64
2023/12/10 00:25:46;;;;;;;1353.10;999.90;;;27.30;99.90;;;;;;5043572;28;20499;-63
2023/12/10 00:28:13;;;;;;;1363.47;999.90;;;27.30;99.90;;;;;;5045621;28;20024;-63
2023/12/10 00:30:42;;;;;;;1367.57;999.90;;;27.30;99.90;;;;;;5043670;28;20484;-61
2023/12/10 00:33:09;;;;;;;1366.60;999.90;;;27.30;99.90;;;;;;5043895;28;20096;-62
2023/12/10 00:35:36;;;;;;;1363.13;999.90;;;27.30;99.90;;;;;;5027336;28;20071;-62
2023/12/10 00:38:02;;;;;;;1364.45;999.90;;;27.30;99.90;;;;;;5042979;28;20040;-64
2023/12/10 00:40:29;;;;;;;1374.97;999.90;;;27.30;99.90;;;;;;5042937;28;20043;-65
2023/12/10 00:42:58;;;;;;;1344.45;999.90;;;27.30;99.90;;;;;;5036215;28;20026;-64
2023/12/10 00:45:25;;;;;;;1362.05;999.90;;;27.30;99.90;;;;;;5039059;28;20522;-65
2023/12/10 00:47:51;;;;;;;1344.05;999.90;;;27.30;99.90;;;;;;5043426;28;20103;-65
2023/12/10 00:50:18;;;;;;;1370.97;999.90;;;27.40;99.90;;;;;;5043794;28;20025;-64
2023/12/10 00:52:45;;;;;;;1372.38;999.90;;;27.40;99.90;;;;;;5044911;28;20070;-65
2023/12/10 00:55:12;;;;;;;1362.60;999.90;;;27.40;99.90;;;;;;5053259;28;20036;-65
2023/12/10 00:57:39;;;;;;;1339.32;999.90;;;27.40;99.90;;;;;;5053253;28;20033;-65
2023/12/10 01:00:06;;;;;;;1342.28;999.90;;;27.40;99.90;;;;;;5053311;28;20043;-65
2023/12/10 01:02:33;;;;;;;1346.70;999.90;;;27.30;99.90;;;;;;5053471;28;20388;-67
2023/12/10 01:04:59;;;;;;;1341.38;999.90;;;27.30;99.90;;;;;;5053070;28;20036;-67
2023/12/10 01:07:26;;;;;;;1370.72;999.90;;;27.40;99.90;;;;;;5052637;28;20028;-65
2023/12/10 01:09:53;;;;;;;1371.53;999.90;;;27.40;99.90;;;;;;5053354;28;20047;-65
2023/12/10 01:12:19;;;;;;;1364.68;999.90;;;27.40;99.90;;;;;;5053097;28;20017;-63
2023/12/10 01:14:46;;;;;;;1376.28;999.90;;;27.30;99.90;;;;;;5053027;28;20028;-63
2023/12/10 01:17:12;;;;;;;1356.85;999.90;;;27.30;99.90;;;;;;5052792;28;20033;-64
2023/12/10 01:19:39;;;;;;;1358.07;999.90;;;27.40;99.90;;;;;;5052899;28;20021;-64
2023/12/10 01:22:06;;;;;;;1345.38;999.90;;;27.50;99.90;;;;;;5052655;28;20394;-62
2023/12/10 01:24:33;;;;;;;1363.05;999.90;;;27.50;99.90;;;;;;5052777;28;20508;-63
2023/12/10 01:27:00;;;;;;;1360.65;999.90;;;27.60;99.90;;;;;;5052825;28;20083;-64
2023/12/10 01:29:26;;;;;;;1349.88;999.90;;;27.70;99.90;;;;;;5052750;28;20021;-63
2023/12/10 01:31:53;;;;;;;1362.28;999.90;;;27.60;99.90;;;;;;5052662;28;20032;-64
2023/12/10 01:34:19;;;;;;;1364.15;999.90;;;27.60;99.90;;;;;;5052501;28;20025;-64
2023/12/10 01:36:47;;;;;;;1348.68;999.90;;;27.70;99.90;;;;;;4963535;28;2553070;-64
2023/12/10 01:39:15;;;;;;;1357.70;999.90;;;27.70;99.90;;;;;;5053079;28;20059;-64
2023/12/10 01:41:41;;;;;;;1362.72;999.90;;;27.80;99.90;;;;;;5053162;28;20480;-63
2023/12/10 01:44:09;;;;;;;1355.68;999.90;;;27.80;99.90;;;;;;5053204;28;20400;-63
2023/12/10 01:46:36;;;;;;;1358.63;999.90;;;27.90;99.90;;;;;;5053047;28;20036;-64
2023/12/10 01:49:07;;;;;;;1362.85;999.90;;;27.90;99.90;;;;;;5053080;28;20033;-64
2023/12/10 01:51:36;;;;;;;1362.07;999.90;;;28.00;99.90;;;;;;5053629;28;20029;-62
2023/12/10 01:54:03;;;;;;;1356.78;999.90;;;28.10;99.90;;;;;;5054427;28;20029;-63
2023/12/10 01:56:30;;;;;;;1364.25;999.90;;;28.10;99.90;;;;;;5053910;28;20026;-62
2023/12/10 01:58:58;;;;;;;1347.15;999.90;;;28.20;99.90;;;;;;5053548;28;20079;-62
2023/12/10 02:01:25;;;;;;;1371.72;999.90;;;28.30;99.90;;;;;;5053888;28;20281;-63
2023/12/10 02:03:52;;;;;;;1342.75;999.90;;;28.40;99.90;;;;;;5053878;28;20467;-63
2023/12/10 02:06:19;;;;;;;1371.65;999.90;;;28.40;99.90;;;;;;5053296;28;20384;-63
2023/12/10 02:08:45;;;;;;;1363.05;999.90;;;28.50;99.90;;;;;;5053566;28;20384;-62
2023/12/10 02:11:12;;;;;;;1365.65;999.90;;;28.70;99.90;;;;;;5053517;28;20025;-63
2023/12/10 02:13:39;;;;;;;1336.75;999.90;;;28.90;99.90;;;;;;5053941;28;20028;-61
2023/12/10 02:16:07;;;;;;;1355.15;999.90;;;29.00;99.90;;;;;;5054285;28;20028;-63
2023/12/10 02:18:35;;;;;;;1367.93;999.90;;;29.00;99.90;;;;;;5053113;28;20025;-63
2023/12/10 02:21:02;;;;;;;1362.93;999.90;;;29.00;99.90;;;;;;5053269;28;20025;-63
2023/12/10 02:23:30;;;;;;;1360.82;999.90;;;29.00;99.90;;;;;;5053056;28;20118;-63
2023/12/10 02:25:57;;;;;;;1353.82;999.90;;;29.00;99.90;;;;;;5052840;28;20021;-64
2023/12/10 02:28:24;;;;;;;1373.50;999.90;;;29.00;99.90;;;;;;5052684;28;20031;-62
2023/12/10 02:30:50;;;;;;;1372.65;999.90;;;29.00;99.90;;;;;;5052754;28;20099;-63
2023/12/10 02:33:17;;;;;;;1373.22;999.90;;;29.00;99.90;;;;;;5052850;28;20029;-64
2023/12/10 02:35:44;;;;;;;1368.25;999.90;;;29.10;99.90;;;;;;5052615;28;20499;-63
2023/12/10 02:38:10;;;;;;;1379.93;999.90;;;29.10;99.90;;;;;;5052733;28;20082;-63
2023/12/10 02:40:37;;;;;;;1369.55;999.90;;;29.10;99.90;;;;;;5053047;28;20071;-62
2023/12/10 02:43:04;;;;;;;1380.63;999.90;;;29.10;99.90;;;;;;5052695;28;20542;-63
2023/12/10 02:45:31;;;;;;;1373.50;999.90;;;29.20;99.90;;;;;;5052496;28;20072;-63
2023/12/10 02:47:58;;;;;;;1347.65;999.90;;;29.20;99.90;;;;;;5053084;28;20029;-64
2023/12/10 02:50:24;;;;;;;1383.32;999.90;;;29.30;99.90;;;;;;5057482;28;20109;-63
2023/12/10 02:52:51;;;;;;;1380.80;999.90;;;29.30;99.90;;;;;;5056734;28;20021;-63
2023/12/10 02:55:17;;;;;;;1356.10;999.90;;;29.40;99.90;;;;;;5056503;28;20025;-64
2023/12/10 02:57:44;;;;;;;1379.15;999.90;;;29.40;99.90;;;;;;5056339;28;20028;-63
2023/12/10 03:00:11;;;;;;;1348.15;999.90;;;29.40;99.90;;;;;;5056433;28;20087;-64
2023/12/10 03:02:37;;;;;;;1378.00;999.90;;;29.40;99.90;;;;;;5056360;28;20025;-63
2023/12/10 03:05:04;;;;;;;1375.95;999.90;;;29.40;99.90;;;;;;5056051;28;20043;-64
2023/12/10 03:07:31;;;;;;;1379.72;999.90;;;29.40;99.90;;;;;;5056007;28;20021;-63
2023/12/10 03:09:57;;;;;;;1351.60;999.90;;;29.50;99.90;;;;;;5055997;28;20035;-63
2023/12/10 03:12:24;;;;;;;1353.30;999.90;;;29.50;99.90;;;;;;5056255;28;20027;-64
2023/12/10 03:14:51;;;;;;;1377.45;999.90;;;29.40;99.90;;;;;;5055924;28;20017;-64
2023/12/10 03:17:17;;;;;;;1381.68;999.90;;;29.50;99.90;;;;;;5055969;28;20033;-64
2023/12/10 03:19:45;;;;;;;1383.00;999.90;;;29.50;99.90;;;;;;5056044;28;20048;-65
2023/12/10 03:22:12;;;;;;;1370.43;999.90;;;29.60;99.90;;;;;;5056034;28;20495;-65
2023/12/10 03:24:38;;;;;;;1368.55;999.90;;;29.60;99.90;;;;;;5056115;28;20032;-65
2023/12/10 03:27:05;;;;;;;1382.38;999.90;;;29.60;99.90;;;;;;5055774;28;20033;-62
2023/12/10 03:29:31;;;;;;;1380.28;999.90;;;29.60;99.90;;;;;;5055888;28;20067;-65
2023/12/10 03:31:58;;;;;;;1331.28;999.90;;;29.60;99.90;;;;;;5056162;28;20085;-66
2023/12/10 03:34:25;;;;;;;1341.22;999.90;;;29.60;99.90;;;;;;5055962;28;20017;-65
2023/12/10 03:36:52;;;;;;;1382.72;999.90;;;29.60;99.90;;;;;;5055487;28;20041;-66
2023/12/10 03:39:18;;;;;;;1383.07;999.90;;;29.70;99.90;;;;;;5055376;28;20029;-66
2023/12/10 03:41:45;;;;;;;1378.10;999.90;;;29.80;99.90;;;;;;5055273;28;20033;-64
2023/12/10 03:44:11;;;;;;;1381.65;999.90;;;29.80;99.90;;;;;;5055364;28;20036;-64
2023/12/10 03:46:38;;;;;;;1375.80;999.90;;;29.80;99.90;;;;;;5055510;28;20021;-68
2023/12/10 03:49:04;;;;;;;1373.72;999.90;;;29.90;99.90;;;;;;5055566;28;20029;-68
2023/12/10 03:51:31;;;;;;;1365.40;999.90;;;30.00;99.90;;;;;;5055756;28;20032;-67
2023/12/10 03:53:58;;;;;;;1384.93;999.90;;;30.00;99.90;;;;;;5055518;28;20040;-68
2023/12/10 03:56:24;;;;;;;1382.53;999.90;;;30.00;99.90;;;;;;5036657;28;20055;-67
2023/12/10 03:58:51;;;;;;;1384.00;999.90;;;30.00;99.90;;;;;;5035488;28;20035;-65
2023/12/10 04:01:18;;;;;;;1383.88;999.90;;;30.20;99.90;;;;;;5035039;28;20021;-65
2023/12/10 04:03:45;;;;;;;1389.82;999.90;;;30.30;99.90;;;;;;5033927;28;20495;-65
2023/12/10 04:06:11;;;;;;;1364.18;999.90;;;30.30;99.90;;;;;;5034802;28;20034;-64
2023/12/10 04:08:38;;;;;;;1387.70;999.90;;;30.30;99.90;;;;;;5034802;28;20071;-65
2023/12/10 04:11:05;;;;;;;1370.53;999.90;;;30.30;99.90;;;;;;5034930;28;20033;-65
2023/12/10 04:13:31;;;;;;;1369.68;999.90;;;30.50;99.90;;;;;;5034972;28;20021;-65
2023/12/10 04:16:00;;;;;;;1394.85;999.90;;;30.50;99.90;;;;;;5034500;28;20052;-65
2023/12/10 04:18:27;;;;;;;1367.95;999.90;;;30.40;99.90;;;;;;5034786;28;20495;-65
2023/12/10 04:20:54;;;;;;;1390.53;999.90;;;30.50;99.90;;;;;;5034375;28;20037;-64
2023/12/10 04:23:21;;;;;;;1391.20;999.90;;;30.50;99.90;;;;;;5033859;28;20389;-65
2023/12/10 04:25:47;;;;;;;1389.03;999.90;;;30.50;99.90;;;;;;5034336;28;20435;-64
2023/12/10 04:28:14;;;;;;;1383.70;999.90;;;30.60;99.90;;;;;;5034610;28;20028;-65
2023/12/10 04:30:40;;;;;;;1359.68;999.90;;;30.80;99.90;;;;;;5034358;28;20103;-65
2023/12/10 04:33:07;;;;;;;1394.50;999.90;;;30.80;99.90;;;;;;5034476;28;20480;-65
2023/12/10 04:35:33;;;;;;;1344.13;999.90;;;30.90;99.90;;;;;;5034151;28;20053;-65
2023/12/10 04:38:00;;;;;;;1400.30;999.90;;;30.90;99.90;;;;;;5034224;28;20053;-65
2023/12/10 04:40:27;;;;;;;1396.65;999.90;;;31.00;99.90;;;;;;5034350;28;20480;-65
2023/12/10 04:42:53;;;;;;;1400.35;999.90;;;31.00;99.90;;;;;;5034428;28;20033;-65
2023/12/10 04:45:20;;;;;;;1369.28;999.90;;;31.10;99.90;;;;;;5033973;28;20443;-65
2023/12/10 04:47:47;;;;;;;1395.43;999.90;;;31.10;99.90;;;;;;5034204;28;20534;-65
2023/12/10 04:50:13;;;;;;;1395.88;999.90;;;31.20;99.90;;;;;;5034184;28;20033;-65
2023/12/10 04:52:40;;;;;;;1372.20;999.90;;;31.30;99.90;;;;;;5034040;28;20022;-64
2023/12/10 04:55:06;;;;;;;1398.38;999.90;;;31.40;99.90;;;;;;5034247;28;20025;-65
2023/12/10 04:57:33;;;;;;;1397.53;999.90;;;31.50;99.90;;;;;;5034176;28;20025;-65
2023/12/10 04:59:59;;;;;;;1391.57;999.90;;;31.60;99.90;;;;;;5033849;28;20025;-65
2023/12/10 05:02:26;;;;;;;1403.18;999.90;;;31.70;99.90;;;;;;5033957;28;20030;-65
2023/12/10 05:04:53;;;;;;;1406.38;999.90;;;31.70;99.90;;;;;;5033892;28;20029;-65
2023/12/10 05:07:19;;;;;;;1401.95;999.90;;;31.70;99.90;;;;;;5033888;28;20111;-63
2023/12/10 05:09:46;;;;;;;1397.30;999.90;;;31.60;99.90;;;;;;5033851;28;20036;-64
2023/12/10 05:12:12;;;;;;;1397.60;999.90;;;31.50;99.90;;;;;;5033383;28;20544;-65
2023/12/10 05:14:39;;;;;;;1399.38;999.90;;;31.60;99.90;;;;;;5033677;28;20043;-64
2023/12/10 05:17:05;;;;;;;1398.55;999.90;;;31.50;99.90;;;;;;5033897;28;20121;-64
2023/12/10 05:19:32;;;;;;;1396.32;999.90;;;31.60;99.90;;;;;;5033751;28;20464;-64
2023/12/10 05:21:58;;;;;;;1402.10;999.90;;;31.60;99.90;;;;;;5033672;28;20028;-65
2023/12/10 05:24:25;;;;;;;1372.32;999.90;;;31.60;99.90;;;;;;5033462;28;20105;-65
2023/12/10 05:26:52;;;;;;;1401.53;999.90;;;31.60;99.90;;;;;;5033437;28;20373;-65
2023/12/10 05:29:18;;;;;;;1358.07;999.90;;;31.60;99.90;;;;;;5033892;28;20435;-65
2023/12/10 05:31:45;;;;;;;1401.03;999.90;;;31.60;99.90;;;;;;5033561;28;20029;-65
2023/12/10 05:34:12;;;;;;;1373.88;999.90;;;31.60;99.90;;;;;;5033537;28;20026;-65
2023/12/10 05:36:38;;;;;;;1393.15;999.90;;;31.60;99.90;;;;;;5033337;28;20049;-64
2023/12/10 05:39:05;;;;;;;1388.25;999.90;;;31.60;99.90;;;;;;5033134;28;20061;-65
2023/12/10 05:41:31;;;;;;;1402.05;999.90;;;31.60;99.90;;;;;;5033331;28;20022;-65
2023/12/10 05:43:58;;;;;;;1402.38;999.90;;;31.60;99.90;;;;;;5033237;28;20443;-65
2023/12/10 05:46:25;;;;;;;1399.50;999.90;;;31.60;99.90;;;;;;5033164;28;20026;-65
2023/12/10 05:48:51;;;;;;;1398.75;999.90;;;31.60;99.90;;;;;;5033177;28;20476;-65
2023/12/10 05:51:18;;;;;;;1407.38;999.90;;;31.60;99.90;;;;;;5033279;28;20048;-65
2023/12/10 05:53:45;;;;;;;1401.43;999.90;;;31.60;99.90;;;;;;5032964;28;20468;-64
2023/12/10 05:56:12;;;;;;;1378.90;999.90;;;31.60;99.90;;;;;;5033160;28;20029;-65
2023/12/10 05:58:38;;;;;;;1384.43;999.90;;;31.60;99.90;;;;;;5033061;28;20104;-65
2023/12/10 06:01:05;;;;;;;1379.90;999.90;;;31.60;99.90;;;;;;5032968;28;20018;-65
2023/12/10 06:03:32;;;;;;;1383.72;999.90;;;31.60;99.90;;;;;;5032983;28;20104;-65
2023/12/10 06:05:58;;;;;;;1378.70;999.90;;;31.60;99.90;;;;;;5033232;28;20037;-65
2023/12/10 06:08:25;;;;;;;1388.68;999.90;;;31.50;99.90;;;;;;5032739;28;20032;-64
2023/12/10 06:10:51;;;;;;;1384.10;999.90;;;31.50;99.90;;;;;;5032905;28;20057;-65
2023/12/10 06:13:18;;;;;;;1357.20;999.90;;;31.50;99.90;;;;;;5033090;28;20117;-65
2023/12/10 06:15:45;;;;;;;1384.18;999.90;;;31.40;99.90;;;;;;5032821;28;20029;-63
2023/12/10 06:18:12;;;;;;;1378.88;999.90;;;31.40;99.90;;;;;;5033267;28;20060;-65
2023/12/10 06:20:38;;;;;;;1378.03;999.90;;;31.40;99.90;;;;;;5032910;28;20091;-65
2023/12/10 06:23:05;;;;;;;1371.68;999.90;;;31.40;99.90;;;;;;5033491;28;20018;-65
2023/12/10 06:25:31;;;;;;;1373.63;999.90;;;31.50;99.90;;;;;;5036725;28;20369;-65
2023/12/10 06:27:58;;;;;;;1381.00;999.90;;;31.50;99.90;;;;;;5036812;28;20435;-65
2023/12/10 06:30:24;;;;;;;1356.95;999.90;;;31.60;99.90;;;;;;5036759;28;20037;-65
2023/12/10 06:32:51;;;;;;;1381.25;999.90;;;31.60;99.90;;;;;;5036831;28;20060;-64
2023/12/10 06:35:17;;;;;;;1385.80;999.90;;;31.60;99.90;;;;;;5036629;28;20026;-65
2023/12/10 06:37:45;;;;;;;1391.85;999.90;;;31.70;99.90;;;;;;5036649;28;20083;-64
2023/12/10 06:40:11;;;;;;;1386.35;999.90;;;31.80;99.90;;;;;;5036544;28;20029;-64
2023/12/10 06:42:38;;;;;;;1386.40;999.90;;;31.70;99.90;;;;;;5036536;28;20041;-64
2023/12/10 06:45:05;;;;;;;1406.95;999.90;;;31.80;99.90;;;;;;5036458;28;20115;-64
2023/12/10 06:47:32;;;;;;;1402.78;999.90;;;31.80;99.90;;;;;;5036295;28;20026;-65
2023/12/10 06:49:59;;;;;;;1383.55;999.90;;;31.70;99.90;;;;;;5036816;28;20033;-64
2023/12/10 06:52:25;;;;;;;1400.50;999.90;;;31.80;99.90;;;;;;5036534;28;20022;-64
2023/12/10 06:54:52;;;;;;;1400.28;999.90;;;31.70;99.90;;;;;;5036274;28;20392;-64
2023/12/10 06:57:19;;;;;;;1385.95;999.90;;;31.70;99.90;;;;;;5036510;28;20045;-65
2023/12/10 06:59:45;;;;;;;1404.72;999.90;;;31.70;99.90;;;;;;5036276;28;20033;-65
2023/12/10 07:02:12;;;;;;;1383.20;999.90;;;31.70;99.90;;;;;;5036264;28;20025;-65
2023/12/10 07:04:38;;;;;;;1406.75;999.90;;;31.70;99.90;;;;;;5036294;28;20019;-64
2023/12/10 07:07:05;;;;;;;1397.72;999.90;;;31.70;99.90;;;;;;5036023;28;20061;-64
2023/12/10 07:09:31;;;;;;;1382.75;999.90;;;31.70;99.90;;;;;;5036003;28;20100;-64
2023/12/10 07:11:58;;;;;;;1412.43;999.90;;;31.70;99.90;;;;;;5035981;28;20018;-63
2023/12/10 07:14:24;;;;;;;1409.00;999.90;;;31.50;99.90;;;;;;5036153;28;20021;-64
2023/12/10 07:16:51;;;;;;;1381.80;999.90;;;31.50;99.90;;;;;;5035728;28;20075;-64
2023/12/10 07:19:18;;;;;;;1403.70;999.90;;;31.30;99.90;;;;;;5040525;28;20396;-64
2023/12/10 07:21:44;;;;;;;1380.35;999.90;;;31.20;99.90;;;;;;5055849;28;20025;-64
2023/12/10 07:24:11;;;;;;;1392.78;999.90;;;31.10;99.90;;;;;;5055611;28;20035;-64
2023/12/10 07:26:37;;;;;;;1405.00;999.90;;;31.10;99.90;;;;;;5055654;28;20021;-64
2023/12/10 07:29:04;;;;;;;1406.57;999.90;;;30.90;99.90;;;;;;5055543;28;20025;-64
2023/12/10 07:31:30;;;;;;;1401.03;999.90;;;30.70;99.90;;;;;;5055425;28;20025;-64
2023/12/10 07:33:57;;;;;;;1398.63;999.90;;;30.70;99.90;;;;;;5055067;28;20035;-64
2023/12/10 07:36:23;;;;;;;1407.97;999.90;;;30.70;99.90;;;;;;5055330;28;20195;-64
2023/12/10 07:38:51;;;;;;;1395.95;999.90;;;30.70;99.90;;;;;;5055682;28;20032;-64
2023/12/10 07:41:17;;;;;;;1383.85;999.90;;;30.70;99.90;;;;;;5055516;28;20045;-64
2023/12/10 07:43:44;;;;;;;1401.75;999.90;;;30.80;99.90;;;;;;5055420;28;20483;-64
2023/12/10 07:46:10;;;;;;;1400.85;999.90;;;30.90;99.90;;;;;;5055184;28;20029;-64
2023/12/10 07:48:37;;;;;;;1380.70;999.90;;;31.00;99.90;;;;;;5055167;28;20025;-64
2023/12/10 07:51:03;;;;;;;1382.45;999.90;;;31.10;99.90;;;;;;5055204;28;20017;-65
2023/12/10 07:53:30;;;;;;;1361.40;999.90;;;31.20;99.90;;;;;;5055484;28;20033;-64
2023/12/10 07:55:56;;;;;;;1402.35;999.90;;;31.30;99.90;;;;;;5054993;28;20103;-65
2023/12/10 07:58:23;;;;;;;1416.63;999.90;;;31.30;99.90;;;;;;5054996;28;20047;-66
2023/12/10 08:00:50;;;;;;;1407.35;999.90;;;31.40;99.90;;;;;;5055124;28;20047;-65
2023/12/10 08:03:16;;;;;;;1420.32;999.90;;;31.60;99.90;;;;;;5055118;28;20176;-65
2023/12/10 08:05:43;;;;;;;1406.50;999.90;;;31.70;99.90;;;;;;5055162;28;20029;-64
2023/12/10 08:08:10;;;;;;;1399.55;999.90;;;31.70;99.90;;;;;;5054886;28;20021;-65
2023/12/10 08:10:36;;;;;;;1403.10;999.90;;;31.80;99.90;;;;;;5054721;28;20025;-65
2023/12/10 08:13:03;;;;;;;1408.60;999.90;;;31.80;99.90;;;;;;5054784;28;20021;-64
2023/12/10 08:15:29;;;;;;;1397.60;999.90;;;31.90;99.90;;;;;;5054880;28;20029;-65
2023/12/10 08:17:56;;;;;;;1402.07;999.90;;;32.10;99.90;;;;;;5054420;28;20029;-65
2023/12/10 08:20:22;;;;;;;1380.45;999.90;;;32.10;99.90;;;;;;5054599;28;20032;-65
2023/12/10 08:22:49;;;;;;;1408.95;999.90;;;32.10;99.90;;;;;;5054581;28;20033;-65
2023/12/10 08:25:16;;;;;;;1401.65;999.90;;;32.10;99.90;;;;;;5054433;28;20112;-64
2023/12/10 08:27:42;;;;;;;1408.35;999.90;;;32.10;99.90;;;;;;5054454;28;20040;-65
2023/12/10 08:30:09;;;;;;;1402.47;999.90;;;32.20;99.90;;;;;;5054804;28;20095;-65
2023/12/10 08:32:36;;;;;;;1399.32;999.90;;;32.20;99.90;;;;;;5054624;28;20032;-65
2023/12/10 08:35:03;;;;;;;1406.47;999.90;;;32.20;99.90;;;;;;5054414;28;20026;-65
2023/12/10 08:37:29;;;;;;;1403.60;999.90;;;32.20;99.90;;;;;;5054154;28;20048;-65
2023/12/10 08:39:56;;;;;;;1404.55;999.90;;;32.20;99.90;;;;;;5054129;28;20029;-62
2023/12/10 08:42:22;;;;;;;1399.45;999.90;;;32.30;99.90;;;;;;5054251;28;20039;-65
2023/12/10 08:44:49;;;;;;;1385.80;999.90;;;32.30;99.90;;;;;;5054223;28;20033;-65
2023/12/10 08:47:15;;;;;;;1407.03;999.90;;;32.30;99.90;;;;;;5053524;28;20115;-65
2023/12/10 08:49:42;;;;;;;1448.05;999.90;;;32.30;99.90;;;;;;5054267;28;20021;-68
2023/12/10 08:52:08;;;;;;;1403.25;999.90;;;32.30;99.90;;;;;;5054170;28;20479;-68
2023/12/10 08:54:35;;;;;;;1411.25;999.90;;;32.30;99.90;;;;;;5053968;28;20032;-64
2023/12/10 08:57:02;;;;;;;1403.38;999.90;;;32.30;99.90;;;;;;5052843;28;20033;-65
2023/12/10 08:59:28;;;;;;;1408.32;999.90;;;32.30;99.90;;;;;;5062145;28;20498;-63
2023/12/10 09:01:55;;;;;;;1407.60;999.90;;;32.30;99.90;;;;;;5072223;28;20037;-64
2023/12/10 09:04:21;;;;;;;1386.47;999.90;;;32.40;99.90;;;;;;5071964;28;20515;-65
2023/12/10 09:06:48;;;;;;;1400.07;999.90;;;32.30;99.90;;;;;;5072112;28;20027;-65
2023/12/10 09:09:14;;;;;;;1405.03;999.90;;;32.30;99.90;;;;;;5072359;28;20040;-65
2023/12/10 09:11:42;;;;;;;1404.53;999.90;;;32.30;99.90;;;;;;5071835;28;20363;-64
2023/12/10 09:14:10;;;;;;;1403.03;999.90;;;32.30;99.90;;;;;;5071950;28;20453;-64
2023/12/10 09:16:38;;;;;;;1402.53;999.90;;;32.30;99.90;;;;;;5071847;28;20028;-66
2023/12/10 09:19:04;;;;;;;1385.93;999.90;;;32.30;99.90;;;;;;5071858;28;20379;-64
2023/12/10 09:21:31;;;;;;;1411.85;999.90;;;32.30;99.90;;;;;;5071831;28;20036;-64
2023/12/10 09:23:57;;;;;;;1390.20;999.90;;;32.20;99.90;;;;;;5071578;28;20038;-63
2023/12/10 09:26:25;;;;;;;1403.22;999.90;;;32.20;99.90;;;;;;5071491;28;20475;-64
2023/12/10 09:28:52;;;;;;;1403.45;999.90;;;32.10;99.90;;;;;;5072109;28;20078;-64
2023/12/10 09:31:19;;;;;;;1397.13;999.90;;;31.90;99.90;;;;;;5071711;28;20028;-64
2023/12/10 09:33:46;;;;;;;1407.18;999.90;;;31.80;99.90;;;;;;5071642;28;20028;-64
2023/12/10 09:36:12;;;;;;;1445.82;999.90;;;31.80;99.90;;;;;;5071422;28;20056;-64
2023/12/10 09:38:39;;;;;;;1438.40;999.90;;;31.70;99.90;;;;;;5071623;28;20035;-64
2023/12/10 09:41:05;;;;;;;1999.90;999.90;;;31.70;99.90;;;;;;5071326;28;20585;-64
2023/12/10 09:43:33;;;;;;;1540.53;999.90;;;31.70;99.90;;;;;;5071666;28;20478;-64
2023/12/10 09:46:01;;;;;;;1516.32;999.90;;;31.60;99.90;;;;;;5071404;28;20487;-64
2023/12/10 09:48:30;;;;;;;1459.75;999.90;;;31.50;99.90;;;;;;5071372;28;20100;-65
2023/12/10 09:50:56;;;;;;;1487.15;999.90;;;31.50;99.90;;;;;;5046555;28;20025;-63
2023/12/10 09:53:23;;;;;;;1405.90;999.90;;;31.40;99.90;;;;;;5040155;28;20017;-64
2023/12/10 09:55:49;;;;;;;1395.53;999.90;;;31.40;99.90;;;;;;5055098;28;20514;-63
2023/12/10 09:58:16;;;;;;;1401.35;999.90;;;31.30;99.90;;;;;;5040457;28;20059;-61
2023/12/10 10:00:42;;;;;;;1401.30;999.90;;;31.30;99.90;;;;;;5042436;28;20052;-63
2023/12/10 10:03:11;;;;;;;1383.45;999.90;;;31.20;99.90;;;;;;5040894;28;20034;-63
2023/12/10 10:05:38;;;;;;;1383.30;999.90;;;31.20;99.90;;;;;;5040031;28;20074;-63
2023/12/10 10:08:05;;;;;;;1414.78;999.90;;;31.20;99.90;;;;;;5040424;28;20014;-63
2023/12/10 10:10:31;;;;;;;1385.38;999.90;;;31.10;99.90;;;;;;5042693;28;20013;-63
2023/12/10 10:12:59;;;;;;;1398.03;999.90;;;31.10;99.90;;;;;;5040462;28;20391;-62
2023/12/10 10:15:27;;;;;;;1404.05;999.90;;;31.10;99.90;;;;;;5039014;28;20051;-62
2023/12/10 10:17:55;;;;;;;1404.75;999.90;;;31.00;99.90;;;;;;5038469;28;20021;-62
2023/12/10 10:20:24;;;;;;;1416.32;999.90;;;31.00;99.90;;;;;;5037762;28;20452;-65
2023/12/10 10:22:51;;;;;;;1405.10;999.90;;;31.00;99.90;;;;;;5043296;28;20029;-63
2023/12/10 10:25:21;;;;;;;1409.43;999.90;;;31.00;99.90;;;;;;5034315;28;20608;-61
2023/12/10 10:27:50;;;;;;;1398.07;999.90;;;31.00;99.90;;;;;;5041630;28;20026;-63
2023/12/10 10:30:16;;;;;;;1380.82;999.90;;;31.00;99.90;;;;;;5039336;28;20034;-65
2023/12/10 10:32:44;;;;;;;1418.70;999.90;;;31.00;99.90;;;;;;5033020;28;20025;-61
2023/12/10 10:35:12;;;;;;;1396.40;999.90;;;30.90;99.90;;;;;;5032319;28;20029;-62
2023/12/10 10:37:38;;;;;;;1376.25;999.90;;;30.80;99.90;;;;;;5045064;28;20139;-62
2023/12/10 10:40:06;;;;;;;1396.85;999.90;;;30.80;99.90;;;;;;5038235;28;20033;-63
2023/12/10 10:42:32;;;;;;;1396.10;999.90;;;30.80;99.90;;;;;;5043705;28;20060;-63
2023/12/10 10:47:45;;;;;;;1394.68;999.90;;;30.70;99.90;;;;;;5104803;27;20432;-61
2023/12/10 10:50:12;;;;;;;1414.78;999.90;;;30.50;99.90;;;;;;5094106;28;20392;-62
2023/12/10 10:52:40;;;;;;;1407.82;999.90;;;30.40;99.90;;;;;;5097526;28;20380;-62
2023/12/10 10:55:07;;;;;;;1409.97;999.90;;;30.40;99.90;;;;;;5101016;28;20028;-62
2023/12/10 10:57:35;;;;;;;1422.22;999.90;;;30.40;99.90;;;;;;5101501;28;20032;-62
2023/12/10 11:00:22;;;;;;;1393.90;999.90;;;30.40;99.90;;;;;;5090836;28;20085;-61
2023/12/10 11:03:01;;;;;;;1412.60;999.90;;;30.30;99.90;;;;;;5086301;28;20047;-62
2023/12/10 11:05:37;;;;;;;1419.57;999.90;;;30.20;99.90;;;;;;5067349;28;20039;-60
2023/12/10 11:08:05;;;;;;;1385.07;999.90;;;30.10;99.90;;;;;;5067226;28;20051;-61
2023/12/10 11:10:33;;;;;;;1374.05;999.90;;;29.90;99.90;;;;;;5067017;28;20032;-61
2023/12/10 11:13:00;;;;;;;1368.18;999.90;;;29.80;99.90;;;;;;5066974;28;20486;-62
2023/12/10 11:15:29;;;;;;;1390.93;999.90;;;29.60;99.90;;;;;;5075911;28;20132;-62
2023/12/10 11:18:05;;;;;;;1382.93;999.90;;;29.40;99.90;;;;;;5085975;28;20107;-61
2023/12/10 11:20:47;;;;;;;1394.68;999.90;;;29.30;99.90;;;;;;5086232;28;20032;-62
2023/12/10 11:23:16;;;;;;;1359.15;999.90;;;29.20;99.90;;;;;;5084965;28;20044;-62
2023/12/10 11:25:44;;;;;;;1381.70;999.90;;;29.10;99.90;;;;;;5084672;28;20630;-62
2023/12/10 11:28:12;;;;;;;1364.88;999.90;;;29.00;99.90;;;;;;5082578;28;20032;-62
2023/12/10 11:30:40;;;;;;;1389.15;999.90;;;28.90;99.90;;;;;;5082857;28;20439;-61
2023/12/10 11:33:07;;;;;;;1363.85;999.90;;;28.90;99.90;;;;;;5084741;28;20096;-60
2023/12/10 11:35:34;;;;;;;1363.55;999.90;;;28.90;99.90;;;;;;5086022;28;20047;-62
2023/12/10 11:38:00;;;;;;;1384.50;999.90;;;28.90;99.90;;;;;;5085674;28;20040;-62
2023/12/10 11:40:27;;;;;;;1384.72;999.90;;;28.90;99.90;;;;;;5085840;28;20452;-62
2023/12/10 11:42:54;;;;;;;1365.60;999.90;;;28.80;99.90;;;;;;5085814;28;20085;-62
2023/12/10 11:45:20;;;;;;;1381.60;999.90;;;28.80;99.90;;;;;;5085405;28;20141;-62
2023/12/10 11:47:47;;;;;;;1375.50;999.90;;;28.80;99.90;;;;;;5088087;28;20017;-62
2023/12/10 11:50:14;;;;;;;1377.07;999.90;;;28.60;99.90;;;;;;5088042;28;20028;-62
2023/12/10 11:52:41;;;;;;;1377.70;999.90;;;28.40;99.90;;;;;;5096116;28;20027;-63
2023/12/10 11:55:08;;;;;;;1340.90;999.90;;;28.50;99.90;;;;;;5108351;28;20028;-60
2023/12/10 11:57:42;;;;;;;1350.43;999.90;;;28.50;99.90;;;;;;5092080;28;20059;-62
2023/12/10 12:00:11;;;;;;;1379.95;999.90;;;28.50;99.90;;;;;;5076263;28;20622;-62